sensor_id;sensor_type;location;lat;lon;timestamp;temperature;humidity
52739;DHT22;52466;40.122;18.318;2022-10-16T00:02:07;13.90;89.20
52739;DHT22;52466;40.122;18.318;2022-10-16T00:05:16;14.10;89.20
52739;DHT22;52466;40.122;18.318;2022-10-16T00:08:23;13.80;89.20
52739;DHT22;52466;40.122;18.318;2022-10-16T00:11:34;13.70;89.60
52739;DHT22;52466;40.122;18.318;2022-10-16T00:14:43;13.70;89.80
52739;DHT22;52466;40.122;18.318;2022-10-16T00:17:51;13.90;89.60
52739;DHT22;52466;40.122;18.318;2022-10-16T00:21:10;13.90;89.50
52739;DHT22;52466;40.122;18.318;2022-10-16T00:24:36;14.00;89.60
52739;DHT22;52466;40.122;18.318;2022-10-16T00:27:44;13.90;89.30
52739;DHT22;52466;40.122;18.318;2022-10-16T00:30:52;13.80;89.60
52739;DHT22;52466;40.122;18.318;2022-10-16T00:34:00;13.80;90.20
52739;DHT22;52466;40.122;18.318;2022-10-16T00:37:08;13.90;90.10
52739;DHT22;52466;40.122;18.318;2022-10-16T00:40:16;13.90;90.00
52739;DHT22;52466;40.122;18.318;2022-10-16T00:46:42;13.80;90.10
52739;DHT22;52466;40.122;18.318;2022-10-16T00:49:56;13.80;90.30
52739;DHT22;52466;40.122;18.318;2022-10-16T00:53:05;14.00;90.40
52739;DHT22;52466;40.122;18.318;2022-10-16T00:56:13;14.10;90.10
52739;DHT22;52466;40.122;18.318;2022-10-16T00:59:24;14.00;89.90
52739;DHT22;52466;40.122;18.318;2022-10-16T01:02:32;14.00;89.70
52739;DHT22;52466;40.122;18.318;2022-10-16T01:05:54;13.90;90.00
52739;DHT22;52466;40.122;18.318;2022-10-16T01:12:45;13.90;89.60
52739;DHT22;52466;40.122;18.318;2022-10-16T01:16:07;13.60;89.90
52739;DHT22;52466;40.122;18.318;2022-10-16T01:19:36;13.70;90.00
52739;DHT22;52466;40.122;18.318;2022-10-16T01:29:49;13.50;90.40
52739;DHT22;52466;40.122;18.318;2022-10-16T01:33:08;13.60;90.40
52739;DHT22;52466;40.122;18.318;2022-10-16T01:36:23;13.60;90.30
52739;DHT22;52466;40.122;18.318;2022-10-16T01:39:35;13.60;90.30
52739;DHT22;52466;40.122;18.318;2022-10-16T01:42:55;13.70;90.10
52739;DHT22;52466;40.122;18.318;2022-10-16T01:46:05;13.80;90.00
52739;DHT22;52466;40.122;18.318;2022-10-16T01:49:14;13.80;90.00
52739;DHT22;52466;40.122;18.318;2022-10-16T01:52:25;13.80;90.10
52739;DHT22;52466;40.122;18.318;2022-10-16T01:55:41;13.70;90.10
52739;DHT22;52466;40.122;18.318;2022-10-16T01:59:22;13.80;90.20
52739;DHT22;52466;40.122;18.318;2022-10-16T02:02:33;13.80;90.30
52739;DHT22;52466;40.122;18.318;2022-10-16T02:08:55;13.60;90.40
52739;DHT22;52466;40.122;18.318;2022-10-16T02:12:12;13.60;90.60
52739;DHT22;52466;40.122;18.318;2022-10-16T02:15:21;13.60;90.80
52739;DHT22;52466;40.122;18.318;2022-10-16T02:18:29;13.40;90.70
52739;DHT22;52466;40.122;18.318;2022-10-16T02:21:49;13.50;90.80
52739;DHT22;52466;40.122;18.318;2022-10-16T02:25:15;13.40;90.50
52739;DHT22;52466;40.122;18.318;2022-10-16T02:28:28;13.40;90.40
52739;DHT22;52466;40.122;18.318;2022-10-16T02:31:43;13.50;90.30
52739;DHT22;52466;40.122;18.318;2022-10-16T02:34:53;13.50;90.20
52739;DHT22;52466;40.122;18.318;2022-10-16T02:38:02;13.40;90.40
52739;DHT22;52466;40.122;18.318;2022-10-16T02:41:10;13.30;90.60
52739;DHT22;52466;40.122;18.318;2022-10-16T02:44:18;13.40;90.40
52739;DHT22;52466;40.122;18.318;2022-10-16T02:47:25;13.20;90.60
52739;DHT22;52466;40.122;18.318;2022-10-16T02:50:33;13.00;91.00
52739;DHT22;52466;40.122;18.318;2022-10-16T02:53:41;12.70;91.20
52739;DHT22;52466;40.122;18.318;2022-10-16T02:56:49;12.70;91.60
52739;DHT22;52466;40.122;18.318;2022-10-16T02:59:57;12.90;91.70
52739;DHT22;52466;40.122;18.318;2022-10-16T03:03:04;12.80;91.30
52739;DHT22;52466;40.122;18.318;2022-10-16T03:06:12;12.80;91.10
52739;DHT22;52466;40.122;18.318;2022-10-16T03:09:20;12.70;90.70
52739;DHT22;52466;40.122;18.318;2022-10-16T03:12:28;12.70;90.80
52739;DHT22;52466;40.122;18.318;2022-10-16T03:15:36;12.90;91.00
52739;DHT22;52466;40.122;18.318;2022-10-16T03:18:43;13.10;90.40
52739;DHT22;52466;40.122;18.318;2022-10-16T03:21:54;13.10;89.70
52739;DHT22;52466;40.122;18.318;2022-10-16T03:25:02;13.10;90.00
52739;DHT22;52466;40.122;18.318;2022-10-16T03:28:10;13.10;90.40
52739;DHT22;52466;40.122;18.318;2022-10-16T03:31:18;13.00;90.40
52739;DHT22;52466;40.122;18.318;2022-10-16T03:34:26;13.10;90.40
52739;DHT22;52466;40.122;18.318;2022-10-16T03:37:34;13.00;90.20
52739;DHT22;52466;40.122;18.318;2022-10-16T03:40:41;13.10;90.00
52739;DHT22;52466;40.122;18.318;2022-10-16T03:43:50;13.10;90.30
52739;DHT22;52466;40.122;18.318;2022-10-16T03:46:57;13.20;90.60
52739;DHT22;52466;40.122;18.318;2022-10-16T03:50:06;13.10;90.80
52739;DHT22;52466;40.122;18.318;2022-10-16T03:53:14;13.00;91.40
52739;DHT22;52466;40.122;18.318;2022-10-16T03:56:22;13.00;91.60
52739;DHT22;52466;40.122;18.318;2022-10-16T03:59:30;12.90;91.70
52739;DHT22;52466;40.122;18.318;2022-10-16T04:02:38;13.10;92.30
52739;DHT22;52466;40.122;18.318;2022-10-16T04:05:46;13.30;92.50
52739;DHT22;52466;40.122;18.318;2022-10-16T04:08:53;13.30;92.60
52739;DHT22;52466;40.122;18.318;2022-10-16T04:12:01;13.30;92.50
52739;DHT22;52466;40.122;18.318;2022-10-16T04:15:09;13.30;91.80
52739;DHT22;52466;40.122;18.318;2022-10-16T04:18:17;13.40;91.30
52739;DHT22;52466;40.122;18.318;2022-10-16T04:21:25;13.30;91.30
52739;DHT22;52466;40.122;18.318;2022-10-16T04:24:32;13.30;91.60
52739;DHT22;52466;40.122;18.318;2022-10-16T04:27:40;13.30;91.50
52739;DHT22;52466;40.122;18.318;2022-10-16T04:30:48;13.40;91.60
52739;DHT22;52466;40.122;18.318;2022-10-16T04:33:56;13.40;91.80
52739;DHT22;52466;40.122;18.318;2022-10-16T04:37:03;13.40;92.00
52739;DHT22;52466;40.122;18.318;2022-10-16T04:40:11;13.40;92.00
52739;DHT22;52466;40.122;18.318;2022-10-16T04:43:20;13.40;92.00
52739;DHT22;52466;40.122;18.318;2022-10-16T04:46:28;13.30;91.90
52739;DHT22;52466;40.122;18.318;2022-10-16T04:49:36;13.10;91.50
52739;DHT22;52466;40.122;18.318;2022-10-16T04:52:43;13.10;91.90
52739;DHT22;52466;40.122;18.318;2022-10-16T04:55:51;13.00;91.60
52739;DHT22;52466;40.122;18.318;2022-10-16T04:58:59;13.10;91.40
52739;DHT22;52466;40.122;18.318;2022-10-16T05:02:06;13.10;91.20
52739;DHT22;52466;40.122;18.318;2022-10-16T05:05:14;12.90;91.50
52739;DHT22;52466;40.122;18.318;2022-10-16T05:08:22;12.90;91.70
52739;DHT22;52466;40.122;18.318;2022-10-16T05:11:29;12.90;91.60
52739;DHT22;52466;40.122;18.318;2022-10-16T05:14:37;13.00;91.20
52739;DHT22;52466;40.122;18.318;2022-10-16T05:17:45;13.20;90.60
52739;DHT22;52466;40.122;18.318;2022-10-16T05:20:52;13.30;90.10
52739;DHT22;52466;40.122;18.318;2022-10-16T05:24:00;13.40;89.60
52739;DHT22;52466;40.122;18.318;2022-10-16T05:27:07;13.40;89.50
52739;DHT22;52466;40.122;18.318;2022-10-16T05:30:16;13.60;89.20
52739;DHT22;52466;40.122;18.318;2022-10-16T05:33:25;13.90;88.80
52739;DHT22;52466;40.122;18.318;2022-10-16T05:36:33;14.30;88.10
52739;DHT22;52466;40.122;18.318;2022-10-16T05:39:40;14.60;87.50
52739;DHT22;52466;40.122;18.318;2022-10-16T05:42:48;14.80;86.70
52739;DHT22;52466;40.122;18.318;2022-10-16T05:46:02;15.10;86.20
52739;DHT22;52466;40.122;18.318;2022-10-16T05:49:09;15.60;85.10
52739;DHT22;52466;40.122;18.318;2022-10-16T05:52:17;16.60;83.30
52739;DHT22;52466;40.122;18.318;2022-10-16T05:55:25;21.30;67.60
52739;DHT22;52466;40.122;18.318;2022-10-16T05:58:35;23.50;58.00
52739;DHT22;52466;40.122;18.318;2022-10-16T06:01:43;23.30;57.30
52739;DHT22;52466;40.122;18.318;2022-10-16T06:04:53;21.60;62.60
52739;DHT22;52466;40.122;18.318;2022-10-16T06:08:01;22.10;62.50
52739;DHT22;52466;40.122;18.318;2022-10-16T06:11:12;24.40;55.70
52739;DHT22;52466;40.122;18.318;2022-10-16T06:14:20;27.00;49.10
52739;DHT22;52466;40.122;18.318;2022-10-16T06:17:28;27.50;47.20
52739;DHT22;52466;40.122;18.318;2022-10-16T06:20:36;28.20;45.90
52739;DHT22;52466;40.122;18.318;2022-10-16T06:23:44;29.00;44.50
52739;DHT22;52466;40.122;18.318;2022-10-16T06:26:54;30.50;41.50
52739;DHT22;52466;40.122;18.318;2022-10-16T06:30:02;29.10;44.00
52739;DHT22;52466;40.122;18.318;2022-10-16T06:33:11;28.00;46.90
52739;DHT22;52466;40.122;18.318;2022-10-16T06:36:19;29.50;44.40
52739;DHT22;52466;40.122;18.318;2022-10-16T06:39:28;30.80;41.90
52739;DHT22;52466;40.122;18.318;2022-10-16T06:42:35;30.90;41.50
52739;DHT22;52466;40.122;18.318;2022-10-16T06:45:43;31.30;41.60
52739;DHT22;52466;40.122;18.318;2022-10-16T06:48:51;32.10;39.60
52739;DHT22;52466;40.122;18.318;2022-10-16T06:51:58;32.60;39.10
52739;DHT22;52466;40.122;18.318;2022-10-16T06:55:06;33.10;38.00
52739;DHT22;52466;40.122;18.318;2022-10-16T06:58:14;33.30;38.10
52739;DHT22;52466;40.122;18.318;2022-10-16T07:01:23;32.80;39.20
52739;DHT22;52466;40.122;18.318;2022-10-16T07:04:31;33.10;38.90
52739;DHT22;52466;40.122;18.318;2022-10-16T07:07:39;34.50;36.20
52739;DHT22;52466;40.122;18.318;2022-10-16T07:10:47;33.20;38.60
52739;DHT22;52466;40.122;18.318;2022-10-16T07:13:54;32.90;39.40
52739;DHT22;52466;40.122;18.318;2022-10-16T07:17:02;32.00;41.40
52739;DHT22;52466;40.122;18.318;2022-10-16T07:20:10;31.50;42.60
52739;DHT22;52466;40.122;18.318;2022-10-16T07:23:17;30.00;46.20
52739;DHT22;52466;40.122;18.318;2022-10-16T07:26:26;24.80;60.40
52739;DHT22;52466;40.122;18.318;2022-10-16T07:29:34;23.70;65.20
52739;DHT22;52466;40.122;18.318;2022-10-16T07:32:42;23.30;66.70
52739;DHT22;52466;40.122;18.318;2022-10-16T07:35:51;22.90;68.10
52739;DHT22;52466;40.122;18.318;2022-10-16T07:38:59;23.30;67.10
52739;DHT22;52466;40.122;18.318;2022-10-16T07:42:06;22.60;69.50
52739;DHT22;52466;40.122;18.318;2022-10-16T07:45:15;22.80;69.20
52739;DHT22;52466;40.122;18.318;2022-10-16T07:48:23;22.80;69.50
52739;DHT22;52466;40.122;18.318;2022-10-16T07:51:32;23.20;68.00
52739;DHT22;52466;40.122;18.318;2022-10-16T07:54:39;22.50;70.40
52739;DHT22;52466;40.122;18.318;2022-10-16T07:57:47;21.90;71.60
52739;DHT22;52466;40.122;18.318;2022-10-16T08:00:56;22.00;72.20
52739;DHT22;52466;40.122;18.318;2022-10-16T08:04:05;22.20;72.00
52739;DHT22;52466;40.122;18.318;2022-10-16T08:07:12;21.80;72.30
52739;DHT22;52466;40.122;18.318;2022-10-16T08:10:22;21.60;73.60
52739;DHT22;52466;40.122;18.318;2022-10-16T08:13:31;22.20;73.00
52739;DHT22;52466;40.122;18.318;2022-10-16T08:16:38;22.10;71.50
52739;DHT22;52466;40.122;18.318;2022-10-16T08:19:46;21.80;72.60
52739;DHT22;52466;40.122;18.318;2022-10-16T08:22:55;21.80;72.60
52739;DHT22;52466;40.122;18.318;2022-10-16T08:26:05;22.30;71.90
52739;DHT22;52466;40.122;18.318;2022-10-16T08:29:14;22.20;71.40
52739;DHT22;52466;40.122;18.318;2022-10-16T08:32:21;21.50;73.20
52739;DHT22;52466;40.122;18.318;2022-10-16T08:35:29;21.20;73.80
52739;DHT22;52466;40.122;18.318;2022-10-16T08:38:37;21.40;74.10
52739;DHT22;52466;40.122;18.318;2022-10-16T08:42:07;22.00;72.20
52739;DHT22;52466;40.122;18.318;2022-10-16T08:45:25;22.20;72.30
52739;DHT22;52466;40.122;18.318;2022-10-16T08:51:49;22.50;68.80
52739;DHT22;52466;40.122;18.318;2022-10-16T08:54:58;22.50;69.10
52739;DHT22;52466;40.122;18.318;2022-10-16T08:58:17;22.20;70.20
52739;DHT22;52466;40.122;18.318;2022-10-16T09:01:41;22.00;70.50
52739;DHT22;52466;40.122;18.318;2022-10-16T09:21:35;22.10;69.90
52739;DHT22;52466;40.122;18.318;2022-10-16T09:24:43;22.40;69.20
52739;DHT22;52466;40.122;18.318;2022-10-16T09:27:53;22.60;68.60
52739;DHT22;52466;40.122;18.318;2022-10-16T09:31:01;22.60;67.20
52739;DHT22;52466;40.122;18.318;2022-10-16T09:37:26;22.10;66.20
52739;DHT22;52466;40.122;18.318;2022-10-16T09:40:38;22.20;66.60
52739;DHT22;52466;40.122;18.318;2022-10-16T09:43:55;22.60;65.60
52739;DHT22;52466;40.122;18.318;2022-10-16T09:47:25;22.50;65.30
52739;DHT22;52466;40.122;18.318;2022-10-16T09:50:33;23.10;64.90
52739;DHT22;52466;40.122;18.318;2022-10-16T09:53:46;23.00;64.40
52739;DHT22;52466;40.122;18.318;2022-10-16T09:57:04;22.50;64.00
52739;DHT22;52466;40.122;18.318;2022-10-16T10:00:17;22.60;65.60
52739;DHT22;52466;40.122;18.318;2022-10-16T10:03:34;22.80;65.30
52739;DHT22;52466;40.122;18.318;2022-10-16T10:06:44;23.10;64.20
52739;DHT22;52466;40.122;18.318;2022-10-16T10:09:53;23.20;64.10
52739;DHT22;52466;40.122;18.318;2022-10-16T10:13:02;23.10;65.20
52739;DHT22;52466;40.122;18.318;2022-10-16T10:16:09;23.30;64.60
52739;DHT22;52466;40.122;18.318;2022-10-16T10:19:20;22.60;64.20
52739;DHT22;52466;40.122;18.318;2022-10-16T10:26:01;22.80;62.80
52739;DHT22;52466;40.122;18.318;2022-10-16T10:29:15;23.00;63.30
52739;DHT22;52466;40.122;18.318;2022-10-16T10:46:09;23.00;62.60
52739;DHT22;52466;40.122;18.318;2022-10-16T11:03:17;22.90;64.40
52739;DHT22;52466;40.122;18.318;2022-10-16T11:06:40;23.00;64.30
52739;DHT22;52466;40.122;18.318;2022-10-16T11:10:02;22.80;63.90
52739;DHT22;52466;40.122;18.318;2022-10-16T11:17:04;23.00;64.30
52739;DHT22;52466;40.122;18.318;2022-10-16T11:20:32;23.00;63.70
52739;DHT22;52466;40.122;18.318;2022-10-16T11:24:36;22.90;63.10
52739;DHT22;52466;40.122;18.318;2022-10-16T11:31:16;22.80;64.10
52739;DHT22;52466;40.122;18.318;2022-10-16T11:37:44;22.90;64.50
52739;DHT22;52466;40.122;18.318;2022-10-16T11:40:56;22.80;65.60
52739;DHT22;52466;40.122;18.318;2022-10-16T11:44:36;22.50;66.20
52739;DHT22;52466;40.122;18.318;2022-10-16T11:47:51;22.50;66.20
52739;DHT22;52466;40.122;18.318;2022-10-16T11:51:11;22.40;67.70
52739;DHT22;52466;40.122;18.318;2022-10-16T11:57:45;22.70;65.30
52739;DHT22;52466;40.122;18.318;2022-10-16T12:00:55;22.60;65.90
52739;DHT22;52466;40.122;18.318;2022-10-16T12:04:26;22.50;66.30
52739;DHT22;52466;40.122;18.318;2022-10-16T12:08:11;22.20;67.30
52739;DHT22;52466;40.122;18.318;2022-10-16T12:17:40;22.40;67.30
52739;DHT22;52466;40.122;18.318;2022-10-16T12:20:55;22.40;67.80
52739;DHT22;52466;40.122;18.318;2022-10-16T12:24:06;22.30;66.50
52739;DHT22;52466;40.122;18.318;2022-10-16T12:27:31;22.50;68.30
52739;DHT22;52466;40.122;18.318;2022-10-16T12:30:41;22.50;67.70
52739;DHT22;52466;40.122;18.318;2022-10-16T12:34:02;22.20;68.40
52739;DHT22;52466;40.122;18.318;2022-10-16T12:40:30;22.10;67.50
52739;DHT22;52466;40.122;18.318;2022-10-16T12:46:49;22.10;67.80
52739;DHT22;52466;40.122;18.318;2022-10-16T12:49:59;22.10;65.90
52739;DHT22;52466;40.122;18.318;2022-10-16T12:53:36;22.10;67.70
52739;DHT22;52466;40.122;18.318;2022-10-16T12:57:05;22.00;67.10
52739;DHT22;52466;40.122;18.318;2022-10-16T13:00:49;22.10;68.20
52739;DHT22;52466;40.122;18.318;2022-10-16T13:04:19;22.20;69.20
52739;DHT22;52466;40.122;18.318;2022-10-16T13:11:13;22.10;67.50
52739;DHT22;52466;40.122;18.318;2022-10-16T13:28:09;22.00;68.00
52739;DHT22;52466;40.122;18.318;2022-10-16T13:31:22;22.00;67.60
52739;DHT22;52466;40.122;18.318;2022-10-16T13:34:46;21.90;68.40
52739;DHT22;52466;40.122;18.318;2022-10-16T13:38:17;21.90;67.50
52739;DHT22;52466;40.122;18.318;2022-10-16T13:41:25;21.80;69.30
52739;DHT22;52466;40.122;18.318;2022-10-16T13:44:47;22.00;69.30
52739;DHT22;52466;40.122;18.318;2022-10-16T13:48:04;21.90;68.30
52739;DHT22;52466;40.122;18.318;2022-10-16T13:51:16;21.70;67.60
52739;DHT22;52466;40.122;18.318;2022-10-16T13:54:25;21.70;67.60
52739;DHT22;52466;40.122;18.318;2022-10-16T13:57:33;21.50;66.80
52739;DHT22;52466;40.122;18.318;2022-10-16T14:00:53;21.60;68.20
52739;DHT22;52466;40.122;18.318;2022-10-16T14:04:06;21.50;66.70
52739;DHT22;52466;40.122;18.318;2022-10-16T14:07:18;21.60;67.50
52739;DHT22;52466;40.122;18.318;2022-10-16T14:10:31;21.60;66.70
52739;DHT22;52466;40.122;18.318;2022-10-16T14:13:43;21.50;67.00
52739;DHT22;52466;40.122;18.318;2022-10-16T14:16:52;21.50;68.50
52739;DHT22;52466;40.122;18.318;2022-10-16T14:20:01;21.40;68.00
52739;DHT22;52466;40.122;18.318;2022-10-16T14:23:29;21.20;69.80
52739;DHT22;52466;40.122;18.318;2022-10-16T14:26:42;21.40;69.20
52739;DHT22;52466;40.122;18.318;2022-10-16T14:29:50;21.30;68.00
52739;DHT22;52466;40.122;18.318;2022-10-16T14:33:00;21.20;68.90
52739;DHT22;52466;40.122;18.318;2022-10-16T14:36:12;21.10;69.70
52739;DHT22;52466;40.122;18.318;2022-10-16T14:39:22;21.10;70.50
52739;DHT22;52466;40.122;18.318;2022-10-16T14:42:30;21.20;70.50
52739;DHT22;52466;40.122;18.318;2022-10-16T14:45:38;21.10;70.90
52739;DHT22;52466;40.122;18.318;2022-10-16T14:48:51;21.10;71.10
52739;DHT22;52466;40.122;18.318;2022-10-16T14:52:00;20.90;72.20
52739;DHT22;52466;40.122;18.318;2022-10-16T14:55:09;20.90;72.30
52739;DHT22;52466;40.122;18.318;2022-10-16T14:58:23;20.90;72.70
52739;DHT22;52466;40.122;18.318;2022-10-16T15:01:32;20.70;71.90
52739;DHT22;52466;40.122;18.318;2022-10-16T15:04:40;20.60;72.10
52739;DHT22;52466;40.122;18.318;2022-10-16T15:07:48;20.50;72.20
52739;DHT22;52466;40.122;18.318;2022-10-16T15:10:56;20.50;71.70
52739;DHT22;52466;40.122;18.318;2022-10-16T15:14:04;20.40;72.20
52739;DHT22;52466;40.122;18.318;2022-10-16T15:17:11;20.40;72.30
52739;DHT22;52466;40.122;18.318;2022-10-16T15:20:20;20.30;71.90
52739;DHT22;52466;40.122;18.318;2022-10-16T15:23:27;20.20;72.40
52739;DHT22;52466;40.122;18.318;2022-10-16T15:26:36;20.10;72.30
52739;DHT22;52466;40.122;18.318;2022-10-16T15:29:43;20.10;72.30
52739;DHT22;52466;40.122;18.318;2022-10-16T15:32:51;20.10;72.20
52739;DHT22;52466;40.122;18.318;2022-10-16T15:35:59;20.00;72.40
52739;DHT22;52466;40.122;18.318;2022-10-16T15:39:19;20.00;73.10
52739;DHT22;52466;40.122;18.318;2022-10-16T15:42:27;19.80;74.10
52739;DHT22;52466;40.122;18.318;2022-10-16T15:45:35;19.70;75.10
52739;DHT22;52466;40.122;18.318;2022-10-16T15:48:42;19.60;75.70
52739;DHT22;52466;40.122;18.318;2022-10-16T15:51:50;19.60;76.10
52739;DHT22;52466;40.122;18.318;2022-10-16T15:55:00;19.40;77.10
52739;DHT22;52466;40.122;18.318;2022-10-16T15:58:07;19.30;77.90
52739;DHT22;52466;40.122;18.318;2022-10-16T16:01:15;19.20;78.50
52739;DHT22;52466;40.122;18.318;2022-10-16T16:04:24;19.20;78.70
52739;DHT22;52466;40.122;18.318;2022-10-16T16:07:38;19.10;79.00
52739;DHT22;52466;40.122;18.318;2022-10-16T16:11:01;19.10;79.40
52739;DHT22;52466;40.122;18.318;2022-10-16T16:14:13;18.90;80.00
52739;DHT22;52466;40.122;18.318;2022-10-16T16:17:21;19.00;80.30
52739;DHT22;52466;40.122;18.318;2022-10-16T16:20:28;18.90;80.70
52739;DHT22;52466;40.122;18.318;2022-10-16T16:23:36;18.80;81.20
52739;DHT22;52466;40.122;18.318;2022-10-16T16:26:44;18.70;81.50
52739;DHT22;52466;40.122;18.318;2022-10-16T16:29:54;18.60;81.90
52739;DHT22;52466;40.122;18.318;2022-10-16T16:33:03;18.50;82.40
52739;DHT22;52466;40.122;18.318;2022-10-16T16:36:12;18.50;82.40
52739;DHT22;52466;40.122;18.318;2022-10-16T16:39:20;18.40;83.00
52739;DHT22;52466;40.122;18.318;2022-10-16T16:42:28;18.30;83.30
52739;DHT22;52466;40.122;18.318;2022-10-16T16:45:36;18.30;83.60
52739;DHT22;52466;40.122;18.318;2022-10-16T16:48:44;18.30;83.60
52739;DHT22;52466;40.122;18.318;2022-10-16T16:51:53;18.30;83.60
52739;DHT22;52466;40.122;18.318;2022-10-16T16:55:00;18.30;83.70
52739;DHT22;52466;40.122;18.318;2022-10-16T16:58:09;18.20;83.80
52739;DHT22;52466;40.122;18.318;2022-10-16T17:01:17;18.10;84.10
52739;DHT22;52466;40.122;18.318;2022-10-16T17:04:25;18.10;84.30
52739;DHT22;52466;40.122;18.318;2022-10-16T17:07:33;18.00;84.50
52739;DHT22;52466;40.122;18.318;2022-10-16T17:10:43;18.00;84.60
52739;DHT22;52466;40.122;18.318;2022-10-16T17:13:51;18.00;84.70
52739;DHT22;52466;40.122;18.318;2022-10-16T17:17:01;18.00;84.70
52739;DHT22;52466;40.122;18.318;2022-10-16T17:20:09;18.00;84.90
52739;DHT22;52466;40.122;18.318;2022-10-16T17:23:18;17.90;85.10
52739;DHT22;52466;40.122;18.318;2022-10-16T17:26:27;17.90;85.20
52739;DHT22;52466;40.122;18.318;2022-10-16T17:29:35;17.80;85.40
52739;DHT22;52466;40.122;18.318;2022-10-16T17:32:42;17.70;85.50
52739;DHT22;52466;40.122;18.318;2022-10-16T17:35:50;17.60;85.90
52739;DHT22;52466;40.122;18.318;2022-10-16T17:38:59;17.60;86.10
52739;DHT22;52466;40.122;18.318;2022-10-16T17:42:08;17.60;86.20
52739;DHT22;52466;40.122;18.318;2022-10-16T17:45:15;17.40;86.40
52739;DHT22;52466;40.122;18.318;2022-10-16T17:48:23;17.50;86.60
52739;DHT22;52466;40.122;18.318;2022-10-16T17:51:31;17.40;86.80
52739;DHT22;52466;40.122;18.318;2022-10-16T17:54:39;17.40;87.10
52739;DHT22;52466;40.122;18.318;2022-10-16T17:57:47;17.30;87.20
52739;DHT22;52466;40.122;18.318;2022-10-16T18:00:55;17.20;87.50
52739;DHT22;52466;40.122;18.318;2022-10-16T18:04:08;17.20;87.70
52739;DHT22;52466;40.122;18.318;2022-10-16T18:07:16;17.20;87.80
52739;DHT22;52466;40.122;18.318;2022-10-16T18:10:24;17.10;88.10
52739;DHT22;52466;40.122;18.318;2022-10-16T18:13:32;17.00;88.30
52739;DHT22;52466;40.122;18.318;2022-10-16T18:16:40;17.00;88.50
52739;DHT22;52466;40.122;18.318;2022-10-16T18:19:48;17.00;88.70
52739;DHT22;52466;40.122;18.318;2022-10-16T18:22:56;17.00;88.80
52739;DHT22;52466;40.122;18.318;2022-10-16T18:26:05;17.00;88.80
52739;DHT22;52466;40.122;18.318;2022-10-16T18:29:13;17.00;88.90
52739;DHT22;52466;40.122;18.318;2022-10-16T18:32:20;17.00;88.90
52739;DHT22;52466;40.122;18.318;2022-10-16T18:35:28;16.90;89.10
52739;DHT22;52466;40.122;18.318;2022-10-16T18:38:36;16.90;89.40
52739;DHT22;52466;40.122;18.318;2022-10-16T18:41:44;16.70;89.70
52739;DHT22;52466;40.122;18.318;2022-10-16T18:44:52;16.70;90.00
52739;DHT22;52466;40.122;18.318;2022-10-16T18:47:59;16.80;90.00
52739;DHT22;52466;40.122;18.318;2022-10-16T18:51:17;16.80;89.90
52739;DHT22;52466;40.122;18.318;2022-10-16T18:54:25;16.80;90.10
52739;DHT22;52466;40.122;18.318;2022-10-16T18:57:33;16.80;90.20
52739;DHT22;52466;40.122;18.318;2022-10-16T19:00:41;16.70;90.30
52739;DHT22;52466;40.122;18.318;2022-10-16T19:04:03;16.60;90.40
52739;DHT22;52466;40.122;18.318;2022-10-16T19:07:11;16.50;90.70
52739;DHT22;52466;40.122;18.318;2022-10-16T19:10:21;16.50;90.90
52739;DHT22;52466;40.122;18.318;2022-10-16T19:13:29;16.50;91.00
52739;DHT22;52466;40.122;18.318;2022-10-16T19:16:38;16.60;90.90
52739;DHT22;52466;40.122;18.318;2022-10-16T19:19:46;16.60;90.60
52739;DHT22;52466;40.122;18.318;2022-10-16T19:22:54;16.50;90.80
52739;DHT22;52466;40.122;18.318;2022-10-16T19:26:07;16.50;91.10
52739;DHT22;52466;40.122;18.318;2022-10-16T19:29:15;16.50;91.20
52739;DHT22;52466;40.122;18.318;2022-10-16T19:32:23;16.40;91.30
52739;DHT22;52466;40.122;18.318;2022-10-16T19:35:32;16.40;91.30
52739;DHT22;52466;40.122;18.318;2022-10-16T19:38:41;16.50;91.10
52739;DHT22;52466;40.122;18.318;2022-10-16T19:41:49;16.30;90.90
52739;DHT22;52466;40.122;18.318;2022-10-16T19:44:56;16.20;91.20
52739;DHT22;52466;40.122;18.318;2022-10-16T19:48:04;16.10;91.50
52739;DHT22;52466;40.122;18.318;2022-10-16T19:51:17;16.20;91.40
52739;DHT22;52466;40.122;18.318;2022-10-16T19:54:25;16.10;91.30
52739;DHT22;52466;40.122;18.318;2022-10-16T19:57:35;16.00;91.30
52739;DHT22;52466;40.122;18.318;2022-10-16T20:00:43;15.90;91.60
52739;DHT22;52466;40.122;18.318;2022-10-16T20:03:51;16.00;91.90
52739;DHT22;52466;40.122;18.318;2022-10-16T20:06:59;16.10;92.00
52739;DHT22;52466;40.122;18.318;2022-10-16T20:10:07;16.10;92.00
52739;DHT22;52466;40.122;18.318;2022-10-16T20:13:14;16.20;92.00
52739;DHT22;52466;40.122;18.318;2022-10-16T20:16:24;16.10;91.80
52739;DHT22;52466;40.122;18.318;2022-10-16T20:19:32;16.10;92.00
52739;DHT22;52466;40.122;18.318;2022-10-16T20:22:40;16.10;92.20
52739;DHT22;52466;40.122;18.318;2022-10-16T20:25:48;16.20;92.00
52739;DHT22;52466;40.122;18.318;2022-10-16T20:28:56;16.10;92.00
52739;DHT22;52466;40.122;18.318;2022-10-16T20:32:04;16.10;92.00
52739;DHT22;52466;40.122;18.318;2022-10-16T20:35:12;16.10;92.10
52739;DHT22;52466;40.122;18.318;2022-10-16T20:38:19;16.10;92.30
52739;DHT22;52466;40.122;18.318;2022-10-16T20:41:27;16.00;92.40
52739;DHT22;52466;40.122;18.318;2022-10-16T20:44:35;16.00;92.40
52739;DHT22;52466;40.122;18.318;2022-10-16T20:47:43;16.00;92.50
52739;DHT22;52466;40.122;18.318;2022-10-16T20:50:50;16.00;92.50
52739;DHT22;52466;40.122;18.318;2022-10-16T20:54:04;15.90;92.50
52739;DHT22;52466;40.122;18.318;2022-10-16T20:57:12;15.90;92.60
52739;DHT22;52466;40.122;18.318;2022-10-16T21:00:19;15.90;92.70
52739;DHT22;52466;40.122;18.318;2022-10-16T21:03:28;15.90;92.30
52739;DHT22;52466;40.122;18.318;2022-10-16T21:06:37;15.90;92.00
52739;DHT22;52466;40.122;18.318;2022-10-16T21:09:45;15.80;91.90
52739;DHT22;52466;40.122;18.318;2022-10-16T21:12:53;15.80;92.40
52739;DHT22;52466;40.122;18.318;2022-10-16T21:16:02;15.70;92.60
52739;DHT22;52466;40.122;18.318;2022-10-16T21:19:09;15.80;92.90
52739;DHT22;52466;40.122;18.318;2022-10-16T21:22:17;15.70;92.50
52739;DHT22;52466;40.122;18.318;2022-10-16T21:25:25;15.70;92.40
52739;DHT22;52466;40.122;18.318;2022-10-16T21:28:32;15.70;92.10
52739;DHT22;52466;40.122;18.318;2022-10-16T21:31:41;15.60;91.70
52739;DHT22;52466;40.122;18.318;2022-10-16T21:34:49;15.60;91.80
52739;DHT22;52466;40.122;18.318;2022-10-16T21:37:56;15.60;91.50
52739;DHT22;52466;40.122;18.318;2022-10-16T21:41:15;15.60;91.60